createdAt,value
2023-05-16T00:01:40.702Z,95.51
2023-05-16T00:03:41.723Z,95.15
2023-05-16T00:07:44.795Z,94.83
2023-05-16T00:09:46.356Z,94.79
2023-05-16T00:11:48.145Z,94.54
2023-05-16T00:13:49.894Z,94.46
2023-05-16T00:15:51.180Z,94.22
2023-05-16T00:19:53.884Z,94.23
2023-05-16T00:23:56.764Z,94.15
2023-05-16T00:25:57.738Z,94.08
2023-05-16T00:30:00.491Z,94.15
2023-05-16T00:32:01.546Z,94.17
2023-05-16T00:36:05.224Z,94.16
2023-05-16T00:40:08.357Z,94.33
2023-05-16T00:42:09.762Z,94.21
2023-05-16T00:46:12.667Z,94.58
2023-05-16T00:50:15.841Z,94.88
2023-05-16T00:52:17.607Z,95.05
2023-05-16T00:56:21.111Z,94.93
2023-05-16T00:58:22.921Z,94.63
2023-05-16T01:00:24.168Z,94.59
2023-05-16T01:03:09.207Z,94.48
2023-05-16T01:07:12.484Z,93.92
2023-05-16T01:09:14.237Z,93.92
2023-05-16T01:13:17.867Z,93.94
2023-05-16T01:17:20.906Z,94.24
2023-05-16T01:19:30.088Z,94.5
2023-05-16T01:23:25.710Z,94.99
2023-05-16T01:25:27.194Z,94.95
2023-05-16T01:29:29.119Z,95.36
2023-05-16T01:33:31.498Z,95.77
2023-05-16T01:35:32.855Z,95.9
2023-05-16T01:39:36.018Z,95.89
2023-05-16T01:41:37.431Z,96.52
2023-05-16T01:45:39.582Z,96.29
2023-05-16T01:49:42.622Z,96.35
2023-05-16T01:51:44.046Z,96.64
2023-05-16T01:55:47.147Z,96.57
2023-05-16T01:57:48.294Z,96.88
2023-05-16T02:01:50.703Z,96.95
2023-05-16T02:05:54.129Z,96.96
2023-05-16T02:07:55.845Z,96.86
2023-05-16T02:09:57.117Z,96.87
2023-05-16T02:11:58.997Z,96.78
2023-05-16T02:16:01.790Z,96.71
2023-05-16T02:18:03.484Z,96.7
2023-05-16T02:20:05.018Z,97.08
2023-05-16T02:22:06.255Z,97.24
2023-05-16T02:24:07.532Z,97.31
2023-05-16T02:28:10.195Z,97.54
2023-05-16T02:30:11.937Z,97.31
2023-05-16T02:32:13.345Z,97.24
2023-05-16T02:34:15.102Z,97.18
2023-05-16T02:38:18.257Z,97.17
2023-05-16T02:44:22.965Z,97.65
2023-05-16T02:48:26.254Z,97.57
2023-05-16T02:50:27.923Z,97.49
2023-05-16T02:52:29.645Z,97.51
2023-05-16T02:54:31.480Z,97.55
2023-05-16T02:58:34.505Z,97.72
2023-05-16T03:00:35.648Z,97.81
2023-05-16T03:02:36.661Z,97.82
2023-05-16T03:04:37.898Z,97.88
2023-05-16T03:06:39.007Z,97.73
2023-05-16T03:10:41.277Z,97.86
2023-05-16T03:14:43.977Z,97.9
2023-05-16T03:16:45.047Z,97.88
2023-05-16T03:20:47.856Z,98
2023-05-16T03:22:49.303Z,98.01
2023-05-16T03:26:51.328Z,98.02
2023-05-16T03:30:54.110Z,98.12
2023-05-16T03:32:55.337Z,98.21
2023-05-16T03:36:58.313Z,98.22
2023-05-16T03:41:00.978Z,98.22
2023-05-16T03:43:02.398Z,98.3
2023-05-16T03:47:05.066Z,98.31
2023-05-16T03:49:06.968Z,98.31
2023-05-16T03:53:10.589Z,98.27
2023-05-16T03:57:14.120Z,98.28
2023-05-16T03:59:15.664Z,98.31
2023-05-16T04:03:18.288Z,98.24
2023-05-16T04:05:19.627Z,98.2
2023-05-16T04:09:22.136Z,98.14
2023-05-16T04:13:25.279Z,98.08
2023-05-16T04:15:26.386Z,97.91
2023-05-16T04:19:29.122Z,97.78
2023-05-16T04:23:32.073Z,97.79
2023-05-16T04:25:33.789Z,97.85
2023-05-16T04:29:36.510Z,97.82
2023-05-16T04:31:38.234Z,97.9
2023-05-16T04:33:40.104Z,97.72
2023-05-16T04:35:41.406Z,97.86
2023-05-16T04:39:44.768Z,97.87
2023-05-16T04:41:46.232Z,97.77
2023-05-16T04:43:47.337Z,97.82
2023-05-16T04:45:48.830Z,97.8
2023-05-16T04:47:50.287Z,97.87
2023-05-16T04:51:53.196Z,97.76
2023-05-16T04:55:56.183Z,97.45
2023-05-16T04:57:57.836Z,97.48
2023-05-16T05:02:00.116Z,97.35
2023-05-16T05:04:00.971Z,97.33
2023-05-16T05:08:04.204Z,97.41
2023-05-16T05:12:06.804Z,97.48
2023-05-16T05:14:08.287Z,97.47
2023-05-16T05:18:11.314Z,97.14
2023-05-16T05:22:13.324Z,97.29
2023-05-16T05:24:14.398Z,97.34
2023-05-16T05:28:17.133Z,97.52
2023-05-16T05:30:18.124Z,97.48
2023-05-16T05:34:20.828Z,97.63
2023-05-16T05:38:23.909Z,97.62
2023-05-16T05:40:25.219Z,97.56
2023-05-16T05:44:28.187Z,97.4
2023-05-16T05:46:29.913Z,97.27
2023-05-16T05:50:33.119Z,97.14
2023-05-16T05:52:34.817Z,96.94
2023-05-16T05:54:36.154Z,96.73
2023-05-16T05:56:37.635Z,96.73
2023-05-16T06:00:40.506Z,96.49
2023-05-16T06:02:42.209Z,96.27
2023-05-16T06:04:43.290Z,95.78
2023-05-16T06:06:44.466Z,95.2
2023-05-16T06:10:48.005Z,94.65
2023-05-16T06:12:49.257Z,94.47
2023-05-16T06:16:59.698Z,93.29
2023-05-16T06:20:54.401Z,92.74
2023-05-16T06:22:55.397Z,92.53
2023-05-16T06:26:58.265Z,92.91
2023-05-16T06:28:59.384Z,92.94
2023-05-16T06:33:02.121Z,92.61
2023-05-16T06:37:05.502Z,92.18
2023-05-16T06:39:06.989Z,91.85
2023-05-16T06:43:10.097Z,92.18
2023-05-16T06:47:12.947Z,92.31
2023-05-16T06:49:14.172Z,92.59
2023-05-16T06:53:16.032Z,92.76
2023-05-16T06:55:17.006Z,92.83
2023-05-16T06:57:18.872Z,92.84
2023-05-16T06:59:20.480Z,92.98
2023-05-16T07:03:22.994Z,93.01
2023-05-16T07:05:24.551Z,93.38
2023-05-16T07:07:25.957Z,93.44
2023-05-16T07:09:27.128Z,93.34
2023-05-16T07:11:28.830Z,93.58
2023-05-16T07:15:31.888Z,93.58
2023-05-16T07:19:33.957Z,93.61
2023-05-16T07:21:35.650Z,93.73
2023-05-16T07:25:38.898Z,94.68
2023-05-16T07:27:40.574Z,93.95
2023-05-16T07:31:43.354Z,94.49
2023-05-16T07:35:46.412Z,94.54
2023-05-16T07:37:47.435Z,94.37
2023-05-16T07:41:50.326Z,94.94
2023-05-16T07:45:53.710Z,93.75
2023-05-16T07:48:39.147Z,94.11
2023-05-16T07:52:41.885Z,94.31
2023-05-16T07:56:44.951Z,93.77
2023-05-16T07:58:45.918Z,93.82
2023-05-16T08:02:49.185Z,93.96
2023-05-16T08:04:50.539Z,93.1
2023-05-16T08:08:53.007Z,93.22
2023-05-16T08:12:55.418Z,93.05
2023-05-16T08:14:56.446Z,93.28
2023-05-16T08:18:59.325Z,92.97
2023-05-16T08:23:01.692Z,92.84
2023-05-16T08:25:03.217Z,92.86
2023-05-16T08:29:06.736Z,92.33
2023-05-16T08:31:07.998Z,92.04
2023-05-16T08:33:09.276Z,92.41
2023-05-16T08:35:10.463Z,92.89
2023-05-16T08:39:14.188Z,92.42
2023-05-16T08:41:15.774Z,92.23
2023-05-16T08:43:16.924Z,92.49
2023-05-16T08:45:17.969Z,92.57
2023-05-16T08:47:19.222Z,91.36
2023-05-16T08:51:21.721Z,91.68
2023-05-16T08:53:22.921Z,91.27
2023-05-16T08:55:24.733Z,91.71
2023-05-16T08:57:26.311Z,91.47
2023-05-16T09:01:29.049Z,91.27
2023-05-16T09:07:33.083Z,91.2
2023-05-16T09:11:36.997Z,90.92
2023-05-16T09:13:36.868Z,90.61
2023-05-16T09:17:43.300Z,91.13
2023-05-16T09:21:42.914Z,90.52
2023-05-16T09:23:44.022Z,90.04
2023-05-16T09:27:47.501Z,90.1
2023-05-16T09:29:48.674Z,89.88
2023-05-16T09:33:52.314Z,88.32
2023-05-16T09:35:53.766Z,89.08
2023-05-16T09:37:54.669Z,88.45
2023-05-16T09:39:55.992Z,88.21
2023-05-16T09:43:58.210Z,88.01
2023-05-16T09:45:59.971Z,89.09
2023-05-16T09:50:01.950Z,90.1
2023-05-16T09:54:04.574Z,88.97
2023-05-16T09:56:05.537Z,88.9
2023-05-16T10:00:07.390Z,88.29
2023-05-16T10:04:10.198Z,88.88
2023-05-16T10:06:11.352Z,87.83
2023-05-16T10:10:14.217Z,88.42
2023-05-16T10:12:15.506Z,89.21
2023-05-16T10:16:17.918Z,88.76
2023-05-16T10:20:20.649Z,88.85
2023-05-16T10:22:21.941Z,89.23
2023-05-16T10:26:24.648Z,89.03
2023-05-16T10:28:25.824Z,89.13
2023-05-16T10:32:28.458Z,87.69
2023-05-16T10:36:31.108Z,86.89
2023-05-16T10:38:32.818Z,87.24
2023-05-16T10:42:35.783Z,84.91
2023-05-16T10:46:38.910Z,86.11
2023-05-16T10:48:40.537Z,86.28
2023-05-16T10:52:43.325Z,84.73
2023-05-16T10:54:44.296Z,84.39
2023-05-16T10:56:45.981Z,84.88
2023-05-16T10:58:48.424Z,83.63
2023-05-16T11:02:51.342Z,83.3
2023-05-16T11:04:52.624Z,83.12
2023-05-16T11:08:55.090Z,85.02
2023-05-16T11:10:56.608Z,84.24
2023-05-16T11:14:59.188Z,83.85
2023-05-16T11:17:00.185Z,84.44
2023-05-16T11:19:01.226Z,84.39
2023-05-16T11:21:02.958Z,84.6
2023-05-16T11:25:05.762Z,84.25
2023-05-16T11:27:06.674Z,82.5
2023-05-16T11:31:09.826Z,82.82
2023-05-16T11:35:14.637Z,82.86
2023-05-16T11:37:14.358Z,83.68
2023-05-16T11:41:17.686Z,82.5
2023-05-16T11:45:20.603Z,82.73
2023-05-16T11:47:21.634Z,82.78
2023-05-16T11:51:25.047Z,83.52
2023-05-16T11:53:26.252Z,83.28
2023-05-16T11:57:29.391Z,84.53
2023-05-16T12:01:32.246Z,86.08
2023-05-16T12:03:34.008Z,84.57
2023-05-16T12:07:36.115Z,85.75
2023-05-16T12:09:37.565Z,84.48
2023-05-16T12:13:40.875Z,85.09
2023-05-16T12:17:44.155Z,86.29
2023-05-16T12:19:45.366Z,84.99
2023-05-16T12:23:47.680Z,85.97
2023-05-16T12:27:51.263Z,84.33
2023-05-16T12:29:52.837Z,85.36
2023-05-16T12:33:55.632Z,83.35
2023-05-16T12:35:57.403Z,84.24
2023-05-16T12:40:00.172Z,82.67
2023-05-16T12:44:03.207Z,81.8
2023-05-16T12:46:04.741Z,81.86
2023-05-16T12:50:07.882Z,81.14
2023-05-16T12:52:09.024Z,81.09
2023-05-16T12:56:12.126Z,80.04
2023-05-16T13:00:15.188Z,80.28
2023-05-16T13:02:16.378Z,80.26
2023-05-16T13:06:18.943Z,79.5
2023-05-16T13:10:21.483Z,78.88
2023-05-16T13:12:22.704Z,77.78
2023-05-16T13:16:26.480Z,77.48
2023-05-16T13:18:27.844Z,77.13
2023-05-16T13:22:29.861Z,76.08
2023-05-16T13:26:33.294Z,75.52
2023-05-16T13:28:34.149Z,75.17
2023-05-16T13:32:36.801Z,74.78
2023-05-16T13:34:38.862Z,76.7
2023-05-16T13:38:41.889Z,75.28
2023-05-16T13:42:44.616Z,73.57
2023-05-16T13:44:46.062Z,76.36
2023-05-16T13:48:48.215Z,74.23
2023-05-16T13:54:51.512Z,72.77
2023-05-16T13:59:02.422Z,71.53
2023-05-16T14:00:55.230Z,70.87
2023-05-16T14:04:57.781Z,72.54
2023-05-16T14:09:00.603Z,72.44
2023-05-16T14:11:02.375Z,72.44
2023-05-16T14:15:05.110Z,75.09
2023-05-16T14:17:05.974Z,72.95
2023-05-16T14:21:08.432Z,73.69
2023-05-16T14:25:11.628Z,72.72
2023-05-16T14:27:13.425Z,72.24
2023-05-16T14:31:16.367Z,71.23
2023-05-16T14:34:01.571Z,72.69
2023-05-16T14:36:02.929Z,72.07
2023-05-16T14:38:04.657Z,70
2023-05-16T14:42:08.537Z,73.12
2023-05-16T14:46:10.568Z,71.12
2023-05-16T14:48:12.175Z,69.46
2023-05-16T14:52:14.946Z,69.52
2023-05-16T14:54:16.347Z,67.98
2023-05-16T14:58:18.972Z,68.8
2023-05-16T15:02:21.646Z,74.91
2023-05-16T15:04:22.635Z,72.03
2023-05-16T15:08:26.097Z,69.71
2023-05-16T15:10:27.930Z,70.45
2023-05-16T15:14:31.053Z,74.34
2023-05-16T15:18:34.157Z,74.23
2023-05-16T15:20:35.588Z,73.4
2023-05-16T15:24:38.200Z,73.95
2023-05-16T15:28:40.868Z,70.3
2023-05-16T15:30:42.592Z,71.04
2023-05-16T15:34:45.581Z,67.93
2023-05-16T15:36:47.237Z,65.74
2023-05-16T15:40:55.203Z,63.68
2023-05-16T15:44:52.713Z,67.77
2023-05-16T15:46:53.669Z,65.86
2023-05-16T15:50:57.045Z,63.42
2023-05-16T15:52:58.189Z,62.56
2023-05-16T15:57:01.321Z,65.46
2023-05-16T16:01:03.827Z,65.8
2023-05-16T16:03:05.287Z,68.99
2023-05-16T16:07:07.966Z,64.68
2023-05-16T16:11:10.550Z,61.31
2023-05-16T16:13:11.693Z,61.24
2023-05-16T16:17:14.898Z,56.62
2023-05-16T16:19:15.755Z,56.98
2023-05-16T16:21:17.156Z,57.32
2023-05-16T16:23:18.103Z,57.7
2023-05-16T16:27:20.504Z,59.77
2023-05-16T16:29:22.162Z,60.5
2023-05-16T16:33:25.453Z,59.01
2023-05-16T16:35:28.425Z,59.58
2023-05-16T16:39:33.029Z,61.35
2023-05-16T16:41:32.348Z,59.81
2023-05-16T16:43:33.607Z,59.56
2023-05-16T16:45:35.606Z,58.99
2023-05-16T16:49:38.136Z,59.59
2023-05-16T16:51:39.422Z,53.19
2023-05-16T16:55:42.365Z,54.55
2023-05-16T16:59:44.931Z,52.44
2023-05-16T17:01:46.691Z,54.47
2023-05-16T17:05:48.579Z,53.92
2023-05-16T17:09:50.920Z,57.33
2023-05-16T17:11:51.953Z,56.51
2023-05-16T17:15:54.368Z,55.93
2023-05-16T17:17:55.664Z,54.01
2023-05-16T17:21:58.464Z,54.58
2023-05-16T17:26:01.017Z,55.29
2023-05-16T17:28:01.950Z,57.71
2023-05-16T17:32:04.798Z,58.48
2023-05-16T17:34:06.226Z,55.39
2023-05-16T17:38:08.988Z,56.46
2023-05-16T17:42:11.604Z,54.24
2023-05-16T17:44:12.679Z,53.74
2023-05-16T17:48:15.478Z,52.56
2023-05-16T17:52:18.794Z,54.42
2023-05-16T17:54:19.953Z,54.55
2023-05-16T17:58:22.106Z,53.3
2023-05-16T18:00:23.234Z,53.58
2023-05-16T18:02:24.774Z,54.59
2023-05-16T18:04:26.192Z,54.63
2023-05-16T18:08:29.630Z,56.25
2023-05-16T18:10:40.033Z,55.76
2023-05-16T18:14:34.190Z,55.87
2023-05-16T18:16:35.885Z,56.61
2023-05-16T18:20:39.000Z,55.87
2023-05-16T18:24:41.358Z,58.57
2023-05-16T18:26:42.865Z,59.57
2023-05-16T18:30:45.006Z,58.04
2023-05-16T18:36:49.497Z,57.84
2023-05-16T18:40:52.356Z,57.92
2023-05-16T18:42:53.977Z,58.21
2023-05-16T18:44:55.478Z,58.45
2023-05-16T18:46:57.370Z,59.27
2023-05-16T18:48:58.605Z,60.15
2023-05-16T18:53:02.036Z,58.5
2023-05-16T18:57:04.601Z,61.41
2023-05-16T18:59:06.505Z,60.51
2023-05-16T19:03:09.365Z,60.07
2023-05-16T19:07:11.977Z,59.97
2023-05-16T19:09:13.014Z,61
2023-05-16T19:13:15.745Z,62.5
2023-05-16T19:15:16.823Z,61.11
2023-05-16T19:17:17.961Z,61.35
2023-05-16T19:19:19.282Z,61.38
2023-05-16T19:23:22.093Z,60.88
2023-05-16T19:25:23.995Z,62.63
2023-05-16T19:27:25.126Z,63.03
2023-05-16T19:29:27.035Z,63.16
2023-05-16T19:31:28.720Z,62.16
2023-05-16T19:35:31.574Z,62.75
2023-05-16T19:37:32.630Z,63.14
2023-05-16T19:39:34.111Z,63
2023-05-16T19:41:35.379Z,63.48
2023-05-16T19:45:38.751Z,63.67
2023-05-16T19:47:40.268Z,64.13
2023-05-16T19:51:42.576Z,65.1
2023-05-16T19:55:45.180Z,64.17
2023-05-16T19:57:46.624Z,64.27
2023-05-16T20:01:49.349Z,65.31
2023-05-16T20:05:52.700Z,65.61
2023-05-16T20:07:53.845Z,64.99
2023-05-16T20:11:56.894Z,66.58
2023-05-16T20:13:58.176Z,66.66
2023-05-16T20:18:01.081Z,66.76
2023-05-16T20:22:04.116Z,66.34
2023-05-16T20:24:05.489Z,66.63
2023-05-16T20:26:07.123Z,65.28
2023-05-16T20:28:08.394Z,66.15
2023-05-16T20:30:09.700Z,66.3
2023-05-16T20:34:21.362Z,66.9
2023-05-16T20:38:15.368Z,65.29
2023-05-16T20:40:16.378Z,67.96
2023-05-16T20:44:19.436Z,66.34
2023-05-16T20:48:22.874Z,66.91
2023-05-16T20:50:23.860Z,68.67
2023-05-16T20:54:26.864Z,70.15
2023-05-16T20:56:28.403Z,69.29
2023-05-16T21:00:31.044Z,68.63
2023-05-16T21:04:33.513Z,68.07
2023-05-16T21:06:35.057Z,68.85
2023-05-16T21:10:38.452Z,67.59
2023-05-16T21:12:39.740Z,68.49
2023-05-16T21:16:42.999Z,67.98
2023-05-16T21:21:29.201Z,67.47
2023-05-16T21:25:32.565Z,65.76
2023-05-16T21:27:33.804Z,68.19
2023-05-16T21:31:37.412Z,67.92
2023-05-16T21:33:38.485Z,68.01
2023-05-16T21:35:40.348Z,67.49
2023-05-16T21:37:41.360Z,67.37
2023-05-16T21:41:44.582Z,67.8
2023-05-16T21:43:46.241Z,67.28
2023-05-16T21:47:49.217Z,67.74
2023-05-16T21:49:50.543Z,69.06
2023-05-16T21:53:54.114Z,69.15
2023-05-16T21:57:57.312Z,67.45
2023-05-16T21:59:58.761Z,68.21
2023-05-16T22:04:01.541Z,70
2023-05-16T22:08:04.733Z,68.94
2023-05-16T22:10:06.034Z,70.04
2023-05-16T22:14:09.256Z,69.99
2023-05-16T22:16:11.106Z,70.49
2023-05-16T22:18:12.269Z,71.09
2023-05-16T22:20:14.085Z,71.28
2023-05-16T22:24:17.246Z,70.58
2023-05-16T22:26:18.914Z,71.67
2023-05-16T22:28:20.667Z,71.95
2023-05-16T22:30:22.325Z,72.78
2023-05-16T22:32:23.365Z,71.39
2023-05-16T22:36:26.285Z,72.3
2023-05-16T22:38:27.605Z,72.72
2023-05-16T22:40:29.189Z,72.65
2023-05-16T22:42:30.938Z,73.09
2023-05-16T22:46:34.132Z,72.83
2023-05-16T22:48:35.196Z,73.08
2023-05-16T22:52:38.071Z,74.31
2023-05-16T22:56:40.603Z,73.94
2023-05-16T22:58:41.983Z,74.19
2023-05-16T23:02:45.118Z,75.24
2023-05-16T23:06:47.481Z,76.36
2023-05-16T23:08:49.033Z,76.96
2023-05-16T23:12:51.567Z,75.01
2023-05-16T23:14:52.794Z,75.89
2023-05-16T23:18:55.757Z,75.5
2023-05-16T23:22:58.657Z,75
2023-05-16T23:24:59.965Z,75
2023-05-16T23:29:02.446Z,75.77
2023-05-16T23:31:03.939Z,76.19
2023-05-16T23:35:07.382Z,77.02
2023-05-16T23:39:10.697Z,77.72
2023-05-16T23:41:11.797Z,77.95
2023-05-16T23:45:14.451Z,78.31
2023-05-16T23:49:17.702Z,78.43
2023-05-16T23:51:18.733Z,78.44
2023-05-16T23:55:31.394Z,77.81
2023-05-16T23:57:22.668Z,78.82
